createdAt,value
2019-01-21T00:01:44.495Z,21.57
2019-01-21T00:04:15.995Z,20.95
2019-01-21T00:06:46.154Z,21.20
2019-01-21T00:09:16.359Z,23.52
2019-01-21T00:11:46.507Z,23.75
2019-01-21T00:14:16.675Z,25.10
2019-01-21T00:16:46.878Z,23.27
2019-01-21T00:19:17.079Z,25.20
2019-01-21T00:21:47.264Z,24.90
2019-01-21T00:24:17.451Z,25.92
2019-01-21T00:26:48.709Z,24.12
2019-01-21T00:29:18.908Z,25.17
2019-01-21T00:31:49.084Z,23.55
2019-01-21T00:34:19.260Z,23.10
2019-01-21T00:36:49.466Z,22.95
2019-01-21T00:39:19.631Z,22.73
2019-01-21T00:41:49.809Z,23.67
2019-01-21T00:44:19.999Z,24.05
2019-01-21T00:46:50.179Z,23.80
2019-01-21T00:49:20.334Z,22.65
2019-01-21T00:51:50.530Z,22.73
2019-01-21T00:54:20.700Z,22.77
2019-01-21T00:56:50.876Z,22.62
2019-01-21T00:59:21.114Z,23.67
2019-01-21T01:01:51.284Z,22.07
2019-01-21T01:04:21.435Z,21.33
2019-01-21T01:06:51.615Z,23.50
2019-01-21T01:09:23.270Z,21.87
2019-01-21T01:11:53.548Z,24.50
2019-01-21T01:14:23.699Z,23.10
2019-01-21T01:16:53.879Z,24.00
2019-01-21T01:19:24.060Z,23.02
2019-01-21T01:21:54.244Z,24.52
2019-01-21T01:24:24.434Z,24.57
2019-01-21T01:26:54.634Z,24.30
2019-01-21T01:29:24.843Z,24.00
2019-01-21T01:31:55.023Z,22.50
2019-01-21T01:34:25.210Z,24.05
2019-01-21T01:36:55.363Z,22.25
2019-01-21T01:39:25.546Z,23.15
2019-01-21T01:41:55.743Z,24.05
2019-01-21T01:44:25.878Z,21.60
2019-01-21T01:46:56.071Z,21.00
2019-01-21T01:49:26.240Z,21.90
2019-01-21T01:51:56.433Z,21.30
2019-01-21T01:54:26.795Z,21.62
2019-01-21T01:56:57.247Z,22.10
2019-01-21T01:59:27.419Z,21.55
2019-01-21T02:01:57.588Z,18.80
2019-01-21T02:04:27.774Z,21.42
2019-01-21T02:06:57.945Z,20.80
2019-01-21T02:09:28.135Z,21.30
2019-01-21T02:11:58.300Z,20.52
2019-01-21T02:14:28.456Z,20.48
2019-01-21T02:17:01.615Z,20.57
2019-01-21T02:19:32.758Z,18.60
2019-01-21T02:22:03.496Z,21.42
2019-01-21T02:24:39.286Z,21.65
2019-01-21T02:27:19.576Z,20.90
2019-01-21T02:30:32.913Z,20.70
2019-01-21T02:34:05.591Z,22.40
2019-01-21T02:37:02.030Z,20.57
2019-01-21T02:39:51.975Z,23.25
2019-01-21T02:42:56.291Z,21.35
2019-01-21T02:46:23.599Z,21.00
2019-01-21T02:49:18.701Z,22.17
2019-01-21T02:52:44.622Z,21.77
2019-01-21T02:55:47.108Z,23.05
2019-01-21T02:58:43.253Z,23.18
2019-01-21T03:02:02.203Z,21.68
2019-01-21T03:05:21.676Z,20.32
2019-01-21T03:08:28.956Z,21.12
2019-01-21T03:11:19.729Z,20.85
2019-01-21T03:14:28.836Z,20.90
2019-01-21T03:17:42.667Z,20.70
2019-01-21T03:20:29.315Z,20.37
2019-01-21T03:23:35.912Z,20.70
2019-01-21T03:26:53.149Z,21.70
2019-01-21T03:30:06.504Z,30.32
2019-01-21T03:33:08.017Z,72.30
2019-01-21T03:36:43.560Z,49.60
2019-01-21T03:40:01.629Z,48.48
2019-01-21T03:42:43.528Z,37.90
2019-01-21T03:45:39.630Z,33.23
2019-01-21T03:48:21.572Z,36.73
2019-01-21T03:51:34.704Z,37.63
2019-01-21T03:54:18.094Z,30.15
2019-01-21T03:57:28.769Z,23.38
2019-01-21T04:00:20.499Z,20.75
2019-01-21T04:03:07.112Z,19.95
2019-01-21T04:06:15.169Z,18.42
2019-01-21T04:09:29.951Z,20.17
2019-01-21T04:12:30.884Z,21.02
2019-01-21T04:15:47.067Z,19.65
2019-01-21T04:18:55.427Z,21.15
2019-01-21T04:22:02.487Z,20.70
2019-01-21T04:25:01.473Z,21.02
2019-01-21T04:28:27.861Z,23.32
2019-01-21T04:31:26.096Z,22.55
2019-01-21T04:34:45.068Z,23.22
2019-01-21T04:37:39.580Z,23.27
2019-01-21T04:40:53.480Z,22.40
2019-01-21T04:43:49.037Z,22.80
2019-01-21T04:46:52.839Z,22.85
2019-01-21T04:49:52.885Z,23.95
2019-01-21T04:53:03.711Z,21.05
2019-01-21T04:55:57.904Z,23.40
2019-01-21T04:59:17.062Z,22.77
2019-01-21T05:02:26.943Z,21.75
2019-01-21T05:05:53.381Z,23.83
2019-01-21T05:08:55.208Z,22.42
2019-01-21T05:12:06.191Z,23.25
2019-01-21T05:15:12.536Z,22.80
2019-01-21T05:18:21.187Z,21.82
2019-01-21T05:21:31.432Z,23.52
2019-01-21T05:24:57.648Z,22.70
2019-01-21T05:28:08.850Z,22.00
2019-01-21T05:31:11.900Z,21.60
2019-01-21T05:34:13.821Z,21.00
2019-01-21T05:37:30.852Z,20.37
2019-01-21T05:40:27.644Z,20.23
2019-01-21T05:43:56.969Z,21.68
2019-01-21T05:47:16.004Z,20.32
2019-01-21T05:50:39.576Z,20.85
2019-01-21T05:53:49.806Z,20.20
2019-01-21T05:56:54.409Z,20.80
2019-01-21T06:00:05.051Z,23.10
2019-01-21T06:03:06.339Z,22.90
2019-01-21T06:06:16.572Z,22.80
2019-01-21T06:09:24.004Z,22.93
2019-01-21T06:12:20.056Z,21.93
2019-01-21T06:15:26.935Z,22.40
2019-01-21T06:18:32.984Z,25.00
2019-01-21T06:21:46.094Z,22.82
2019-01-21T06:24:42.201Z,23.90
2019-01-21T06:27:59.855Z,24.98
2019-01-21T06:31:12.376Z,24.98
2019-01-21T06:34:15.881Z,23.07
2019-01-21T06:37:26.228Z,24.15
2019-01-21T06:40:08.568Z,23.90
2019-01-21T06:43:18.382Z,21.90
2019-01-21T06:46:21.673Z,22.05
2019-01-21T06:49:36.307Z,23.57
2019-01-21T06:52:42.500Z,23.67
2019-01-21T06:55:46.774Z,24.00
2019-01-21T06:58:50.727Z,23.77
2019-01-21T07:01:53.116Z,24.18
2019-01-21T07:04:51.274Z,23.12
2019-01-21T07:07:43.174Z,25.20
2019-01-21T07:10:33.933Z,26.02
2019-01-21T07:13:32.074Z,23.52
2019-01-21T07:16:37.640Z,25.50
2019-01-21T07:19:47.771Z,25.82
2019-01-21T07:22:48.339Z,23.55
2019-01-21T07:26:11.964Z,25.90
2019-01-21T07:29:33.564Z,24.30
2019-01-21T07:32:49.590Z,24.70
2019-01-21T07:35:43.418Z,25.95
2019-01-21T07:38:51.391Z,26.20
2019-01-21T07:41:59.208Z,25.70
2019-01-21T07:44:56.724Z,24.10
2019-01-21T07:47:59.697Z,25.97
2019-01-21T07:51:09.950Z,26.12
2019-01-21T07:54:24.370Z,27.80
2019-01-21T07:57:38.895Z,24.07
2019-01-21T08:00:45.916Z,23.70
2019-01-21T08:03:58.929Z,23.50
2019-01-21T08:06:58.585Z,22.05
2019-01-21T08:10:11.423Z,25.08
2019-01-21T08:13:09.680Z,26.33
2019-01-21T08:16:22.651Z,28.90
2019-01-21T08:19:31.507Z,31.02
2019-01-21T08:22:37.494Z,28.17
2019-01-21T08:25:50.552Z,24.95
2019-01-21T08:29:23.245Z,21.95
2019-01-21T08:32:49.575Z,21.27
2019-01-21T08:35:42.584Z,21.53
2019-01-21T08:38:52.523Z,24.30
2019-01-21T08:42:03.587Z,24.07
2019-01-21T08:44:51.215Z,22.67
2019-01-21T08:47:27.902Z,21.50
2019-01-21T08:50:22.812Z,21.63
2019-01-21T08:53:33.143Z,21.23
2019-01-21T08:56:44.061Z,21.20
2019-01-21T08:59:36.655Z,20.07
2019-01-21T09:02:56.766Z,21.87
2019-01-21T09:05:56.202Z,23.45
2019-01-21T09:09:14.673Z,23.00
2019-01-21T09:12:24.019Z,23.10
2019-01-21T09:15:35.622Z,22.00
2019-01-21T09:18:45.815Z,21.83
2019-01-21T09:21:38.923Z,23.10
2019-01-21T09:24:36.800Z,23.53
2019-01-21T09:27:39.324Z,21.03
2019-01-21T09:30:55.005Z,23.60
2019-01-21T09:33:52.978Z,22.97
2019-01-21T09:36:54.832Z,22.90
2019-01-21T09:39:49.903Z,22.80
2019-01-21T09:42:46.165Z,23.50
2019-01-21T09:45:53.250Z,22.33
2019-01-21T09:48:21.803Z,21.63
2019-01-21T09:50:52.434Z,22.27
2019-01-21T09:53:22.867Z,22.60
2019-01-21T09:55:54.995Z,24.27
2019-01-21T09:58:27.220Z,22.10
2019-01-21T10:00:59.080Z,22.47
2019-01-21T10:03:30.183Z,21.73
2019-01-21T10:06:07.911Z,22.63
2019-01-21T10:09:31.751Z,22.20
2019-01-21T10:12:38.948Z,22.50
2019-01-21T10:15:33.473Z,21.93
2019-01-21T10:18:30.603Z,24.20
2019-01-21T10:21:36.733Z,23.67
2019-01-21T10:24:37.300Z,22.10
2019-01-21T10:27:56.216Z,21.97
2019-01-21T10:31:12.165Z,23.10
2019-01-21T10:34:39.735Z,23.00
2019-01-21T10:37:57.482Z,21.33
2019-01-21T10:40:55.419Z,22.20
2019-01-21T10:44:00.617Z,23.20
2019-01-21T10:47:14.762Z,23.07
2019-01-21T10:50:28.484Z,23.47
2019-01-21T10:53:45.776Z,23.30
2019-01-21T10:56:51.493Z,22.93
2019-01-21T10:59:58.680Z,20.97
2019-01-21T11:02:53.247Z,24.00
2019-01-21T11:06:08.027Z,24.03
2019-01-21T11:09:05.745Z,21.83
2019-01-21T11:12:29.275Z,23.10
2019-01-21T11:15:40.144Z,21.03
2019-01-21T11:18:46.394Z,22.60
2019-01-21T11:21:46.762Z,21.63
2019-01-21T11:24:49.799Z,23.40
2019-01-21T11:27:56.736Z,21.50
2019-01-21T11:31:06.675Z,21.90
2019-01-21T11:34:27.071Z,21.90
2019-01-21T11:37:34.440Z,21.60
2019-01-21T11:40:45.770Z,21.63
2019-01-21T11:44:05.884Z,21.60
2019-01-21T11:47:26.174Z,21.03
2019-01-21T11:50:25.380Z,20.67
2019-01-21T11:53:13.039Z,21.13
2019-01-21T11:56:21.602Z,18.90
2019-01-21T11:59:28.492Z,18.70
2019-01-21T12:02:29.606Z,19.90
2019-01-21T12:05:42.801Z,20.43
2019-01-21T12:08:52.380Z,18.40
2019-01-21T12:11:51.728Z,18.23
2019-01-21T12:14:57.980Z,19.10
2019-01-21T12:17:44.064Z,20.30
2019-01-21T12:20:42.555Z,20.63
2019-01-21T12:23:32.684Z,19.40
2019-01-21T12:26:20.502Z,18.40
2019-01-21T12:29:18.803Z,18.60
2019-01-21T12:32:39.249Z,19.40
2019-01-21T12:35:43.896Z,18.30
2019-01-21T12:39:04.467Z,18.07
2019-01-21T12:42:33.115Z,19.77
2019-01-21T12:45:38.646Z,20.77
2019-01-21T12:48:33.559Z,18.97
2019-01-21T12:51:25.760Z,20.27
2019-01-21T12:54:45.868Z,20.73
2019-01-21T12:57:54.239Z,17.83
2019-01-21T13:01:10.241Z,20.07
2019-01-21T13:04:28.575Z,20.70
2019-01-21T13:07:11.582Z,21.47
2019-01-21T13:10:05.435Z,20.57
2019-01-21T13:13:41.175Z,21.03
2019-01-21T13:16:27.354Z,20.37
2019-01-21T13:19:53.716Z,22.70
2019-01-21T13:22:55.372Z,20.97
2019-01-21T13:26:16.383Z,21.87
2019-01-21T13:29:29.124Z,19.97
2019-01-21T13:32:12.197Z,19.77
2019-01-21T13:35:13.279Z,21.37
2019-01-21T13:38:26.370Z,19.60
2019-01-21T13:41:40.128Z,21.03
2019-01-21T13:45:03.171Z,20.17
2019-01-21T13:47:56.671Z,18.70
2019-01-21T13:50:54.631Z,19.90
2019-01-21T13:54:03.336Z,19.43
2019-01-21T13:56:58.716Z,16.90
2019-01-21T13:59:53.878Z,20.13
2019-01-21T14:02:52.268Z,19.30
2019-01-21T14:05:50.616Z,17.40
2019-01-21T14:09:06.602Z,18.23
2019-01-21T14:12:19.855Z,18.53
2019-01-21T14:15:17.239Z,17.57
2019-01-21T14:18:49.436Z,18.73
2019-01-21T14:22:09.882Z,19.43
2019-01-21T14:25:13.092Z,17.80
2019-01-21T14:28:29.366Z,18.50
2019-01-21T14:31:43.369Z,18.10
2019-01-21T14:35:12.899Z,18.10
2019-01-21T14:38:18.866Z,17.33
2019-01-21T14:41:28.322Z,18.00
2019-01-21T14:44:39.475Z,19.23
2019-01-21T14:47:37.507Z,18.10
2019-01-21T14:50:17.156Z,18.47
2019-01-21T14:53:16.760Z,18.87
2019-01-21T14:56:04.187Z,18.57
2019-01-21T14:59:08.803Z,19.53
2019-01-21T15:02:14.464Z,17.67
2019-01-21T15:05:19.349Z,18.20
2019-01-21T15:08:32.937Z,17.40
2019-01-21T15:11:39.145Z,18.90
2019-01-21T15:14:52.369Z,20.17
2019-01-21T15:18:01.162Z,20.87
2019-01-21T15:21:15.513Z,20.37
2019-01-21T15:24:18.040Z,21.47
2019-01-21T15:27:08.198Z,19.80
2019-01-21T15:30:17.612Z,20.70
2019-01-21T15:33:28.589Z,22.10
2019-01-21T15:36:38.679Z,21.27
2019-01-21T15:39:40.163Z,21.20
2019-01-21T15:43:00.576Z,21.70
2019-01-21T15:45:53.355Z,23.73
2019-01-21T15:49:10.872Z,24.07
2019-01-21T15:52:05.180Z,22.77
2019-01-21T15:55:15.926Z,23.13
2019-01-21T15:58:09.008Z,23.70
2019-01-21T16:01:04.487Z,22.57
2019-01-21T16:03:58.577Z,23.73
2019-01-21T16:06:54.584Z,23.20
2019-01-21T16:10:02.016Z,23.43
2019-01-21T16:13:03.773Z,25.37
2019-01-21T16:16:14.802Z,26.27
2019-01-21T16:18:52.739Z,24.30
2019-01-21T16:22:01.608Z,25.37
2019-01-21T16:25:18.008Z,26.40
2019-01-21T16:28:53.684Z,27.13
2019-01-21T16:31:37.976Z,28.53
2019-01-21T16:34:33.028Z,28.10
2019-01-21T16:37:44.211Z,26.37
2019-01-21T16:41:04.052Z,27.70
2019-01-21T16:43:34.247Z,25.60
2019-01-21T16:46:04.428Z,27.40
2019-01-21T16:48:36.378Z,27.90
2019-01-21T16:51:06.579Z,25.40
2019-01-21T16:53:36.739Z,27.50
2019-01-21T16:56:07.034Z,27.60
2019-01-21T16:58:37.248Z,27.80
2019-01-21T17:01:07.575Z,28.57
2019-01-21T17:03:37.870Z,28.00
2019-01-21T17:06:09.812Z,30.60
2019-01-21T17:08:39.994Z,29.00
2019-01-21T17:11:10.347Z,35.05
2019-01-21T17:13:40.716Z,37.47
2019-01-21T17:16:10.915Z,34.10
2019-01-21T17:18:41.223Z,35.03
2019-01-21T17:21:11.448Z,34.10
2019-01-21T17:23:42.036Z,37.13
2019-01-21T17:26:12.334Z,35.23
2019-01-21T17:28:42.548Z,33.05
2019-01-21T17:31:12.737Z,33.00
2019-01-21T17:33:42.928Z,34.10
2019-01-21T17:36:13.108Z,30.93
2019-01-21T17:38:43.307Z,34.13
2019-01-21T17:41:13.497Z,33.30
2019-01-21T17:43:43.727Z,33.53
2019-01-21T17:46:13.931Z,33.50
2019-01-21T17:48:44.136Z,33.63
2019-01-21T17:51:14.428Z,33.15
2019-01-21T17:53:51.015Z,34.33
2019-01-21T17:56:16.584Z,36.17
2019-01-21T17:58:46.791Z,36.55
2019-01-21T18:01:16.963Z,55.27
2019-01-21T18:03:47.247Z,51.60
2019-01-21T18:06:17.537Z,47.65
2019-01-21T18:08:47.825Z,38.65
2019-01-21T18:11:18.248Z,37.70
2019-01-21T18:13:48.536Z,36.97
2019-01-21T18:16:18.744Z,35.67
2019-01-21T18:18:49.075Z,35.23
2019-01-21T18:21:19.453Z,33.83
2019-01-21T18:23:49.667Z,35.20
2019-01-21T18:26:19.926Z,35.75
2019-01-21T18:28:50.321Z,35.65
2019-01-21T18:31:20.546Z,36.60
2019-01-21T18:33:50.856Z,36.73
2019-01-21T18:36:21.049Z,36.20
2019-01-21T18:38:51.349Z,34.57
2019-01-21T18:41:21.597Z,36.40
2019-01-21T18:43:52.223Z,35.60
2019-01-21T18:46:22.537Z,38.75
2019-01-21T18:48:53.096Z,36.20
2019-01-21T18:51:23.643Z,38.45
2019-01-21T18:53:54.040Z,36.58
2019-01-21T18:56:24.239Z,35.45
2019-01-21T18:58:54.524Z,35.23
2019-01-21T19:01:24.746Z,35.95
2019-01-21T19:03:54.988Z,37.23
2019-01-21T19:06:25.417Z,35.60
2019-01-21T19:08:55.877Z,34.70
2019-01-21T19:11:26.259Z,36.17
2019-01-21T19:13:56.627Z,36.50
2019-01-21T19:16:26.851Z,35.68
2019-01-21T19:18:57.080Z,36.48
2019-01-21T19:21:27.272Z,34.65
2019-01-21T19:23:57.504Z,32.83
2019-01-21T19:26:27.727Z,34.30
2019-01-21T19:28:57.952Z,36.42
2019-01-21T19:31:28.203Z,46.23
2019-01-21T19:33:58.453Z,35.10
2019-01-21T19:36:28.802Z,44.88
2019-01-21T19:38:59.090Z,36.13
2019-01-21T19:41:29.298Z,35.35
2019-01-21T19:43:59.492Z,34.90
2019-01-21T19:46:29.683Z,33.60
2019-01-21T19:49:00.005Z,37.98
2019-01-21T19:51:30.198Z,34.50
2019-01-21T19:54:00.420Z,36.58
2019-01-21T19:56:30.611Z,36.55
2019-01-21T19:59:00.843Z,33.60
2019-01-21T20:01:32.501Z,35.17
2019-01-21T20:04:04.079Z,34.53
2019-01-21T20:06:34.310Z,34.60
2019-01-21T20:09:08.357Z,37.73
2019-01-21T20:11:38.586Z,35.30
2019-01-21T20:14:08.768Z,35.92
2019-01-21T20:16:39.024Z,35.60
2019-01-21T20:19:09.220Z,33.90
2019-01-21T20:21:39.509Z,35.88
2019-01-21T20:24:09.766Z,34.30
2019-01-21T20:26:39.975Z,32.55
2019-01-21T20:29:10.211Z,35.15
2019-01-21T20:31:40.488Z,34.50
2019-01-21T20:34:10.723Z,33.30
2019-01-21T20:36:40.934Z,33.98
2019-01-21T20:39:11.223Z,34.48
2019-01-21T20:41:41.441Z,35.88
2019-01-21T20:44:11.711Z,33.42
2019-01-21T20:46:41.883Z,34.08
2019-01-21T20:49:13.914Z,32.50
2019-01-21T20:51:44.208Z,32.50
2019-01-21T20:54:15.863Z,32.58
2019-01-21T20:56:46.070Z,32.75
2019-01-21T20:59:16.263Z,31.82
2019-01-21T21:01:46.436Z,31.52
2019-01-21T21:04:16.664Z,29.10
2019-01-21T21:06:46.783Z,33.75
2019-01-21T21:09:16.960Z,31.33
2019-01-21T21:11:47.054Z,32.05
2019-01-21T21:14:17.132Z,28.55
2019-01-21T21:16:47.352Z,32.20
2019-01-21T21:19:17.373Z,29.52
2019-01-21T21:21:47.484Z,31.12
2019-01-21T21:24:17.625Z,30.72
2019-01-21T21:26:49.520Z,27.55
2019-01-21T21:29:19.619Z,30.62
2019-01-21T21:31:49.750Z,29.15
2019-01-21T21:34:19.827Z,29.55
2019-01-21T21:36:49.869Z,28.40
2019-01-21T21:39:20.022Z,28.45
2019-01-21T21:41:50.169Z,28.92
2019-01-21T21:44:21.266Z,29.27
2019-01-21T21:46:51.507Z,28.75
2019-01-21T21:49:21.560Z,28.40
2019-01-21T21:51:51.606Z,29.75
2019-01-21T21:54:21.661Z,28.92
2019-01-21T21:56:51.714Z,29.50
2019-01-21T21:59:21.806Z,26.62
2019-01-21T22:01:51.906Z,26.80
2019-01-21T22:04:21.999Z,28.35
2019-01-21T22:06:52.341Z,29.23
2019-01-21T22:09:22.498Z,28.42
2019-01-21T22:11:52.684Z,26.70
2019-01-21T22:14:22.741Z,28.50
2019-01-21T22:16:52.856Z,27.77
2019-01-21T22:19:22.985Z,27.32
2019-01-21T22:21:53.575Z,26.80
2019-01-21T22:24:23.797Z,29.00
2019-01-21T22:26:53.980Z,26.77
2019-01-21T22:29:24.161Z,27.87
2019-01-21T22:31:54.427Z,27.25
2019-01-21T22:34:25.008Z,30.15
2019-01-21T22:36:55.159Z,29.82
2019-01-21T22:39:25.351Z,27.50
2019-01-21T22:41:55.522Z,29.72
2019-01-21T22:44:25.678Z,28.90
2019-01-21T22:46:55.875Z,28.70
2019-01-21T22:49:26.042Z,30.55
2019-01-21T22:51:56.204Z,29.20
2019-01-21T22:54:26.366Z,30.50
2019-01-21T22:56:56.634Z,29.98
2019-01-21T22:59:26.825Z,28.55
2019-01-21T23:01:57.089Z,28.70
2019-01-21T23:04:27.311Z,29.30
2019-01-21T23:06:57.551Z,30.57
2019-01-21T23:09:28.020Z,29.25
2019-01-21T23:11:58.169Z,28.32
2019-01-21T23:14:28.370Z,28.30
2019-01-21T23:16:58.652Z,27.85
2019-01-21T23:19:28.856Z,26.95
2019-01-21T23:21:59.364Z,25.65
2019-01-21T23:24:29.516Z,27.52
2019-01-21T23:26:59.691Z,26.97
2019-01-21T23:29:29.859Z,27.13
2019-01-21T23:32:00.053Z,26.80
2019-01-21T23:34:30.475Z,24.45
2019-01-21T23:37:00.669Z,24.67
2019-01-21T23:39:30.832Z,25.15
2019-01-21T23:42:01.080Z,24.67
2019-01-21T23:44:31.336Z,23.50
2019-01-21T23:47:01.996Z,24.87
2019-01-21T23:49:32.266Z,25.00
2019-01-21T23:52:02.434Z,24.92
2019-01-21T23:54:32.728Z,24.65
2019-01-21T23:57:02.977Z,24.80
2019-01-21T23:59:33.425Z,24.50
